Time;durP1;ratioP1;P1;durP2;ratioP2;P2;SDS_P1;SDS_P2;PMS_P1;PMS_P2;Temp;Humidity;BMP_temperature;BMP_pressure;BME280_temperature;BME280_humidity;BME280_pressure;Samples;Min_cycle;Max_cycle;Signal;HPM_P1;HPM_P2
2022/10/09 00:00:11;;;;;;;23.30;13.55;;;;;;;2.78;100.00;102324.38;10358804;28;20553;-77
2022/10/09 00:05:11;;;;;;;16.35;10.07;;;;;;;2.79;100.00;102326.22;10360437;28;20038;-76
2022/10/09 00:10:12;;;;;;;19.17;9.88;;;;;;;2.72;100.00;102331.50;10361574;28;20116;-75
2022/10/09 00:15:12;;;;;;;19.08;10.77;;;;;;;2.72;100.00;102332.44;10361040;28;20060;-76
2022/10/09 00:20:13;;;;;;;24.30;11.27;;;;;;;2.59;100.00;102332.84;10359116;28;20038;-76
2022/10/09 00:25:13;;;;;;;13.40;7.45;;;;;;;2.46;100.00;102332.31;10342165;28;20124;-76
2022/10/09 00:30:14;;;;;;;14.55;9.18;;;;;;;2.33;100.00;102338.78;10361096;28;20040;-76
2022/10/09 00:35:14;;;;;;;21.20;11.82;;;;;;;2.36;100.00;102343.38;10342919;28;20065;-77
2022/10/09 00:40:15;;;;;;;15.23;8.15;;;;;;;2.27;100.00;102340.72;10357587;28;20038;-77
2022/10/09 00:45:19;;;;;;;12.35;7.88;;;;;;;2.15;100.00;102336.88;10359886;28;20169;-77
2022/10/09 00:50:41;;;;;;;20.30;7.95;;;;;;;2.07;100.00;102332.56;10341658;28;20508;-77
2022/10/09 00:55:42;;;;;;;17.20;10.43;;;;;;;2.00;100.00;102337.06;10340787;28;20046;-77
2022/10/09 01:00:42;;;;;;;21.30;9.57;;;;;;;2.17;100.00;102335.34;10357434;28;20482;-77
2022/10/09 01:06:02;;;;;;;18.73;9.43;;;;;;;2.01;100.00;102332.84;10360979;28;20046;-76
2022/10/09 01:11:04;;;;;;;15.50;8.60;;;;;;;1.92;100.00;102337.94;10357768;28;20107;-76
2022/10/09 01:16:06;;;;;;;18.95;9.35;;;;;;;1.86;100.00;102342.44;10357465;28;20045;-77
2022/10/09 01:21:09;;;;;;;28.05;9.95;;;;;;;1.86;100.00;102339.88;10357054;28;20038;-77
2022/10/09 01:26:15;;;;;;;19.63;11.55;;;;;;;1.81;100.00;102341.97;10358183;28;20520;-76
2022/10/09 01:31:16;;;;;;;21.10;11.75;;;;;;;1.83;100.00;102329.22;10358144;28;20164;-77
2022/10/09 01:36:16;;;;;;;16.63;11.15;;;;;;;1.85;100.00;102327.69;10356777;28;20642;-77
2022/10/09 01:41:17;;;;;;;19.27;11.85;;;;;;;1.85;100.00;102325.13;10341502;28;20128;-76
2022/10/09 01:46:22;;;;;;;20.13;12.48;;;;;;;1.96;100.00;102326.28;10355153;28;20042;-77
2022/10/09 01:51:24;;;;;;;19.63;11.38;;;;;;;1.85;100.00;102319.97;10320272;28;20569;-77
2022/10/09 01:56:25;;;;;;;17.60;12.23;;;;;;;1.80;100.00;102315.97;10314818;28;20046;-77
2022/10/09 02:01:27;;;;;;;23.30;13.50;;;;;;;1.67;100.00;102312.09;10349220;28;20573;-77
2022/10/09 02:06:27;;;;;;;13.93;11.75;;;;;;;1.69;100.00;102312.25;10364654;28;20088;-77
2022/10/09 02:11:29;;;;;;;20.33;13.40;;;;;;;1.72;100.00;102303.16;10345711;28;20042;-77
2022/10/09 02:16:41;;;;;;;20.45;12.85;;;;;;;1.67;100.00;102303.44;10348348;28;20034;-77
2022/10/09 02:21:45;;;;;;;25.37;16.27;;;;;;;1.64;100.00;102292.78;10347674;28;20046;-77
2022/10/09 02:26:46;;;;;;;25.23;16.90;;;;;;;1.54;100.00;102289.22;10363039;28;20520;-77
2022/10/09 02:31:46;;;;;;;21.05;16.13;;;;;;;1.45;100.00;102280.50;10363170;28;20030;-77
2022/10/09 02:36:47;;;;;;;21.23;13.38;;;;;;;1.45;100.00;102280.50;10362965;28;20121;-77
2022/10/09 02:41:47;;;;;;;19.65;13.57;;;;;;;1.49;100.00;102279.16;10331341;28;20128;-77
2022/10/09 02:46:48;;;;;;;23.08;15.02;;;;;;;1.42;100.00;102275.00;10362573;28;20468;-77
2022/10/09 02:51:48;;;;;;;25.08;14.35;;;;;;;1.34;100.00;102283.59;10365521;28;20113;-77
2022/10/09 02:56:49;;;;;;;25.77;15.70;;;;;;;1.28;100.00;102284.78;10362096;28;20041;-77
2022/10/09 03:01:49;;;;;;;23.27;16.20;;;;;;;1.25;100.00;102271.53;10363601;28;20041;-77
2022/10/09 03:06:50;;;;;;;29.45;17.00;;;;;;;1.16;100.00;102275.72;10361262;28;20038;-77
2022/10/09 03:11:52;;;;;;;27.55;17.17;;;;;;;1.11;100.00;102272.63;10364113;28;20504;-77
2022/10/09 03:16:52;;;;;;;37.10;22.70;;;;;;;1.10;100.00;102268.19;10359096;28;20038;-77
2022/10/09 03:21:53;;;;;;;29.83;18.27;;;;;;;1.10;100.00;102265.63;10363518;28;20030;-77
2022/10/09 03:26:53;;;;;;;25.55;18.17;;;;;;;1.15;100.00;102263.56;10360639;28;20104;-77
2022/10/09 03:31:54;;;;;;;24.98;17.55;;;;;;;1.11;100.00;102266.56;10363727;28;20040;-77
2022/10/09 03:36:54;;;;;;;36.55;20.50;;;;;;;1.16;100.00;102270.53;10361135;28;20136;-77
2022/10/09 03:41:55;;;;;;;28.88;20.05;;;;;;;1.10;100.00;102273.34;10361313;28;20037;-80
2022/10/09 03:46:55;;;;;;;38.50;21.90;;;;;;;1.26;100.00;102262.13;10359893;28;20121;-76
2022/10/09 03:51:56;;;;;;;35.67;24.15;;;;;;;1.29;100.00;102257.28;10361275;28;20068;-77
2022/10/09 03:56:56;;;;;;;33.97;23.80;;;;;;;1.39;100.00;102249.78;10360156;28;20115;-78
2022/10/09 04:01:57;;;;;;;36.22;24.60;;;;;;;1.42;100.00;102247.53;10362983;28;20045;-77
2022/10/09 04:06:58;;;;;;;38.88;22.88;;;;;;;1.44;100.00;102247.72;10358746;28;20172;-77
2022/10/09 04:11:58;;;;;;;36.45;22.88;;;;;;;1.40;100.00;102245.56;10359583;28;20129;-78
2022/10/09 04:16:58;;;;;;;31.50;20.38;;;;;;;1.46;100.00;102243.63;10357122;28;20077;-76
2022/10/09 04:21:59;;;;;;;35.08;24.33;;;;;;;1.41;100.00;102244.81;10356069;28;20048;-76
2022/10/09 04:27:03;;;;;;;41.65;24.95;;;;;;;1.38;100.00;102242.78;10355692;28;20394;-75
2022/10/09 04:32:05;;;;;;;46.83;29.73;;;;;;;1.22;100.00;102247.06;10335395;28;20391;-77
2022/10/09 04:37:06;;;;;;;28.50;17.85;;;;;;;1.07;100.00;102242.09;10354880;28;20402;-76
2022/10/09 04:42:08;;;;;;;47.97;26.45;;;;;;;0.93;100.00;102239.69;10354638;28;20406;-77
2022/10/09 04:47:09;;;;;;;58.33;36.45;;;;;;;0.86;100.00;102244.16;10356612;28;20034;-78
2022/10/09 04:52:09;;;;;;;38.65;26.50;;;;;;;0.77;100.00;102235.44;10359220;28;20120;-77
2022/10/09 04:57:10;;;;;;;32.83;22.17;;;;;;;0.80;100.00;102240.91;10354014;28;20095;-78
2022/10/09 05:02:10;;;;;;;47.38;27.25;;;;;;;0.94;100.00;102234.69;10354139;28;20046;-79
2022/10/09 05:07:11;;;;;;;40.63;23.85;;;;;;;0.96;100.00;102224.53;10356732;28;20042;-79
2022/10/09 05:12:12;;;;;;;39.25;23.25;;;;;;;0.97;100.00;102226.38;10357022;28;20046;-78
2022/10/09 05:17:12;;;;;;;31.70;23.85;;;;;;;0.96;100.00;102228.06;10354629;28;20061;-78
2022/10/09 05:22:13;;;;;;;31.27;23.58;;;;;;;0.92;100.00;102227.53;10357264;28;20053;-78
2022/10/09 05:27:13;;;;;;;41.00;23.50;;;;;;;0.86;100.00;102226.13;10352831;28;20389;-78
2022/10/09 05:32:14;;;;;;;30.35;21.33;;;;;;;0.87;100.00;102225.38;10357293;28;20038;-78
2022/10/09 05:37:14;;;;;;;35.42;23.27;;;;;;;0.88;100.00;102216.88;10353479;28;20034;-77
2022/10/09 05:42:15;;;;;;;39.67;23.50;;;;;;;0.89;100.00;102230.72;10357711;28;20038;-79
2022/10/09 05:47:18;;;;;;;35.03;21.60;;;;;;;0.85;100.00;102221.72;10353017;28;20034;-78
2022/10/09 05:52:23;;;;;;;31.08;20.70;;;;;;;0.81;100.00;102213.50;10347866;28;20075;-77
2022/10/09 05:57:23;;;;;;;29.40;16.23;;;;;;;0.83;100.00;102218.06;10353608;28;20375;-78
2022/10/09 06:02:24;;;;;;;26.88;17.20;;;;;;;0.84;100.00;102219.00;10354950;28;20125;-78
2022/10/09 06:07:24;;;;;;;30.05;19.20;;;;;;;0.85;100.00;102219.13;10353421;28;20203;-78
2022/10/09 06:12:28;;;;;;;31.95;19.92;;;;;;;0.90;100.00;102213.56;10352659;28;20129;-79
2022/10/09 06:17:29;;;;;;;27.85;19.48;;;;;;;1.02;100.00;102217.47;10352749;28;20125;-79
2022/10/09 06:22:30;;;;;;;33.88;19.58;;;;;;;1.17;100.00;102221.69;10355305;28;20038;-78
2022/10/09 06:27:31;;;;;;;47.10;25.75;;;;;;;1.36;100.00;102221.06;10350129;28;20116;-78
2022/10/09 06:32:35;;;;;;;41.55;25.65;;;;;;;1.53;100.00;102222.88;10353309;28;20548;-81
2022/10/09 06:37:35;;;;;;;45.35;25.63;;;;;;;1.65;100.00;102218.09;10354407;28;20099;-80
2022/10/09 06:42:37;;;;;;;42.17;27.42;;;;;;;1.74;100.00;102219.06;10360929;28;20549;-79
2022/10/09 06:47:40;;;;;;;38.75;25.70;;;;;;;1.88;100.00;102227.31;10341831;28;20523;-81
2022/10/09 06:52:40;;;;;;;39.72;23.55;;;;;;;2.03;100.00;102223.75;10359744;28;20049;-81
2022/10/09 06:57:41;;;;;;;39.42;23.13;;;;;;;2.76;100.00;102220.81;10358634;28;20379;-78
2022/10/09 07:02:42;;;;;;;36.97;20.77;;;;;;;3.39;100.00;102209.72;10361047;28;20056;-78
2022/10/09 07:07:42;;;;;;;25.90;17.13;;;;;;;3.29;100.00;102217.34;10360095;28;20046;-78
2022/10/09 07:12:45;;;;;;;23.73;16.05;;;;;;;3.14;100.00;102220.22;10358017;28;20042;-78
2022/10/09 07:17:46;;;;;;;29.48;15.55;;;;;;;3.06;100.00;102221.13;10358354;28;20041;-79
2022/10/09 07:22:46;;;;;;;22.27;12.55;;;;;;;3.05;100.00;102225.41;10359424;28;20053;-79
2022/10/09 07:27:47;;;;;;;23.95;14.32;;;;;;;3.35;100.00;102218.88;10361949;28;20034;-79
2022/10/09 07:32:50;;;;;;;25.70;15.50;;;;;;;3.85;100.00;102217.53;10350363;28;20042;-79
2022/10/09 07:37:50;;;;;;;23.52;12.70;;;;;;;4.34;100.00;102217.03;10359384;28;20125;-79
2022/10/09 07:42:51;;;;;;;21.60;13.50;;;;;;;4.74;100.00;102216.38;10355562;28;20037;-79
2022/10/09 07:47:51;;;;;;;26.50;11.38;;;;;;;5.12;100.00;102206.00;10359580;28;20062;-80
2022/10/09 07:52:52;;;;;;;18.73;12.98;;;;;;;5.35;100.00;102189.94;10360723;28;20497;-80
2022/10/09 07:57:52;;;;;;;18.45;9.45;;;;;;;5.37;100.00;102190.06;10357589;28;20127;-79
2022/10/09 08:02:54;;;;;;;17.13;10.73;;;;;;;5.75;100.00;102191.66;10360266;28;20041;-79
2022/10/09 08:07:54;;;;;;;18.38;10.52;;;;;;;6.00;100.00;102195.69;10341204;28;20386;-78
2022/10/09 08:12:55;;;;;;;19.77;9.75;;;;;;;6.27;100.00;102190.13;10356988;28;20042;-79
2022/10/09 08:17:55;;;;;;;19.48;11.77;;;;;;;6.88;100.00;102186.66;10355523;28;20398;-76
2022/10/09 08:22:57;;;;;;;17.08;10.20;;;;;;;7.37;100.00;102190.56;10357659;28;20050;-75
2022/10/09 08:27:58;;;;;;;16.33;8.60;;;;;;;7.72;100.00;102187.31;10348317;28;20045;-76
2022/10/09 08:32:58;;;;;;;12.75;8.57;;;;;;;8.02;100.00;102182.72;10356008;28;20121;-78
2022/10/09 08:37:59;;;;;;;14.77;8.65;;;;;;;8.37;100.00;102184.59;10358520;28;20030;-77
2022/10/09 08:43:05;;;;;;;10.73;6.85;;;;;;;8.97;100.00;102177.84;10356921;28;20069;-78
2022/10/09 08:48:12;;;;;;;16.70;6.95;;;;;;;9.32;100.00;102174.34;10319484;28;20045;-78
2022/10/09 08:53:57;;;;;;;9.68;5.78;;;;;;;9.89;97.42;102167.06;10356397;28;20120;-78
2022/10/09 08:58:58;;;;;;;9.85;4.57;;;;;;;10.26;93.50;102153.09;10347787;28;20092;-78
2022/10/09 09:04:04;;;;;;;14.82;4.88;;;;;;;10.65;91.19;102140.03;10357920;28;20053;-78
2022/10/09 09:09:49;;;;;;;15.70;6.32;;;;;;;10.96;87.57;102131.59;10358444;28;20100;-78
2022/10/09 09:14:52;;;;;;;7.72;4.60;;;;;;;11.40;88.58;102120.50;10327689;28;20050;-78
2022/10/09 09:20:00;;;;;;;9.88;3.85;;;;;;;11.77;83.61;102118.41;10359684;28;20065;-77
2022/10/09 09:25:02;;;;;;;11.20;5.28;;;;;;;12.09;81.38;102107.34;10359329;28;20105;-78
2022/10/09 09:30:09;;;;;;;7.05;3.65;;;;;;;12.78;83.81;102104.38;10358024;28;20030;-79
2022/10/09 09:35:31;;;;;;;8.55;3.60;;;;;;;14.27;68.70;102096.78;10358158;28;20053;-79
2022/10/09 09:40:32;;;;;;;6.07;2.17;;;;;;;16.08;58.76;102088.78;10343824;28;20498;-80
2022/10/09 09:45:33;;;;;;;8.30;3.00;;;;;;;17.72;57.67;102083.09;10342135;28;20046;-78
2022/10/09 09:50:38;;;;;;;15.73;3.63;;;;;;;19.42;48.04;102073.84;10357933;28;20116;-78
2022/10/09 09:55:38;;;;;;;6.57;2.70;;;;;;;20.41;43.50;102071.31;10356683;28;20034;-80
2022/10/09 10:00:39;;;;;;;9.05;2.65;;;;;;;22.06;40.45;102065.34;10357197;28;20046;-81
2022/10/09 10:05:40;;;;;;;5.18;2.28;;;;;;;22.91;39.72;102054.31;10357574;28;20050;-77
2022/10/09 10:10:45;;;;;;;8.57;3.60;;;;;;;24.07;36.02;102045.19;10359277;28;20045;-78
2022/10/09 10:15:50;;;;;;;6.03;2.40;;;;;;;24.16;37.00;102047.03;10348456;28;20445;-77
2022/10/09 10:20:55;;;;;;;7.15;2.13;;;;;;;23.70;36.06;102039.41;10365339;28;20045;-78
2022/10/09 10:25:56;;;;;;;7.82;3.28;;;;;;;23.58;36.12;102033.03;10347814;28;20038;-78
2022/10/09 10:30:56;;;;;;;5.78;2.15;;;;;;;23.68;35.84;102023.34;10363621;28;20510;-78
2022/10/09 10:35:57;;;;;;;6.80;2.10;;;;;;;24.02;34.97;102015.72;10347202;28;20053;-78
2022/10/09 10:41:13;;;;;;;5.15;2.03;;;;;;;23.56;36.62;102007.16;10364006;28;20030;-78
2022/10/09 10:46:22;;;;;;;9.27;2.58;;;;;;;23.88;34.13;102003.94;10345575;28;20042;-79
2022/10/09 10:51:47;;;;;;;4.90;2.38;;;;;;;24.37;34.93;102008.00;10353819;28;20041;-77
2022/10/09 10:56:53;;;;;;;6.80;2.53;;;;;;;24.84;33.81;101985.19;10363584;28;20042;-77
2022/10/09 11:02:08;;;;;;;5.85;2.05;;;;;;;24.54;34.97;101986.75;10346456;28;20068;-77
2022/10/09 11:07:09;;;;;;;6.70;3.33;;;;;;;24.82;31.15;101977.13;10363094;28;20038;-76
2022/10/09 11:12:46;;;;;;;5.57;2.15;;;;;;;24.76;32.72;101979.75;10363615;28;20034;-77
2022/10/09 11:17:56;;;;;;;4.15;1.88;;;;;;;25.85;30.48;101964.13;10318691;28;20045;-77
2022/10/09 11:23:11;;;;;;;5.93;2.75;;;;;;;25.48;31.48;101955.13;10361703;28;20128;-77
2022/10/09 11:28:17;;;;;;;4.80;2.00;;;;;;;25.40;31.39;101947.94;10360559;28;20473;-79
2022/10/09 11:33:28;;;;;;;3.97;1.90;;;;;;;24.78;31.13;101937.84;10362335;28;20040;-77
2022/10/09 11:38:31;;;;;;;5.03;2.37;;;;;;;24.77;32.23;101930.69;10360895;28;20486;-77
2022/10/09 11:43:53;;;;;;;5.30;2.30;;;;;;;26.16;32.11;101931.97;10360098;28;20045;-77
2022/10/09 11:48:58;;;;;;;8.30;2.17;;;;;;;25.38;31.09;101912.19;10360277;28;20064;-76
2022/10/09 11:53:59;;;;;;;7.05;2.05;;;;;;;25.05;31.74;101906.72;10362513;28;20497;-77
2022/10/09 11:59:01;;;;;;;5.33;2.17;;;;;;;24.36;31.40;101894.75;10340375;28;20061;-79
2022/10/09 12:04:02;;;;;;;8.20;2.10;;;;;;;24.63;30.98;101883.31;10345228;28;20125;-78
2022/10/09 12:09:05;;;;;;;6.20;1.90;;;;;;;24.51;32.04;101874.34;10360131;28;20052;-78
2022/10/09 12:14:07;;;;;;;8.30;2.50;;;;;;;24.24;32.61;101859.91;10344551;28;20038;-76
2022/10/09 12:19:24;;;;;;;3.73;1.73;;;;;;;23.79;31.30;101854.19;10342613;28;20088;-77
2022/10/09 12:24:50;;;;;;;4.97;1.67;;;;;;;24.89;31.62;101842.41;10359019;28;20041;-77
2022/10/09 12:29:54;;;;;;;4.57;1.92;;;;;;;24.46;30.98;101832.41;10358848;28;20049;-79
2022/10/09 12:34:54;;;;;;;6.25;2.58;;;;;;;24.18;31.04;101826.91;10343042;28;20080;-78
2022/10/09 12:40:14;;;;;;;4.85;1.63;;;;;;;23.98;33.75;101809.78;10358384;28;20091;-78
2022/10/09 12:45:23;;;;;;;5.57;1.80;;;;;;;23.27;33.72;101808.31;10342480;28;20125;-77
2022/10/09 12:50:30;;;;;;;3.25;1.75;;;;;;;23.09;32.42;101792.09;10355944;28;20041;-79
2022/10/09 12:55:35;;;;;;;11.23;5.00;;;;;;;23.49;34.34;101784.47;10357853;28;20036;-78
2022/10/09 13:00:35;;;;;;;5.97;2.30;;;;;;;23.42;32.19;101778.19;10360050;28;20045;-77
2022/10/09 13:05:40;;;;;;;4.40;1.92;;;;;;;23.38;32.73;101770.13;10357229;28;20126;-77
2022/10/09 13:10:40;;;;;;;3.67;2.05;;;;;;;23.18;32.58;101778.81;10353507;28;20770;-77
2022/10/09 13:15:41;;;;;;;7.50;1.92;;;;;;;22.83;34.18;101758.88;10336356;28;20092;-77
2022/10/09 13:20:41;;;;;;;7.07;2.90;;;;;;;22.85;33.83;101761.59;10355325;28;20156;-78
2022/10/09 13:25:42;;;;;;;8.38;2.80;;;;;;;23.33;34.64;101748.72;10340732;28;20129;-78
2022/10/09 13:30:42;;;;;;;9.93;2.40;;;;;;;22.93;34.33;101741.22;10341927;28;20048;-77
2022/10/09 13:35:43;;;;;;;4.95;1.52;;;;;;;22.07;35.21;101722.38;10356891;28;20041;-78
2022/10/09 13:40:43;;;;;;;5.57;1.95;;;;;;;22.63;34.72;101713.31;10341438;28;20627;-76
2022/10/09 13:45:44;;;;;;;4.72;1.98;;;;;;;22.01;36.30;101709.88;10363880;28;20127;-77
2022/10/09 13:50:44;;;;;;;4.55;1.35;;;;;;;22.82;33.92;101687.72;10366383;28;20037;-76
2022/10/09 13:55:45;;;;;;;4.07;1.98;;;;;;;22.28;35.12;101693.31;10365922;28;20050;-78
2022/10/09 14:00:46;;;;;;;5.60;1.70;;;;;;;22.49;34.43;101683.81;10366507;28;20128;-75
2022/10/09 14:05:46;;;;;;;4.57;1.15;;;;;;;22.09;33.91;101667.31;10365176;28;20050;-76
2022/10/09 14:10:47;;;;;;;6.57;1.38;;;;;;;22.13;33.36;101663.81;10365217;28;20133;-78
2022/10/09 14:15:47;;;;;;;4.80;1.67;;;;;;;21.81;33.62;101659.88;10366362;28;20482;-76
2022/10/09 14:20:48;;;;;;;2.17;1.45;;;;;;;22.10;33.92;101646.03;10362724;28;20048;-76
2022/10/09 14:25:48;;;;;;;8.20;1.45;;;;;;;21.41;34.00;101646.81;10354550;28;20072;-76
2022/10/09 14:30:49;;;;;;;5.15;1.38;;;;;;;21.55;35.67;101633.72;10324796;28;20046;-76
2022/10/09 14:35:49;;;;;;;4.28;1.58;;;;;;;21.78;35.51;101634.94;10324021;28;20381;-76
2022/10/09 14:40:50;;;;;;;8.80;1.70;;;;;;;21.35;36.06;101628.09;10326155;28;20050;-78
2022/10/09 14:46:03;;;;;;;4.50;1.13;;;;;;;21.49;34.96;101627.41;10325196;28;20070;-77
2022/10/09 14:51:04;;;;;;;3.55;1.48;;;;;;;21.35;34.88;101609.44;10323316;28;20124;-76
2022/10/09 14:56:06;;;;;;;6.10;2.47;;;;;;;20.85;36.88;101597.16;10323048;28;20038;-77
2022/10/09 15:01:07;;;;;;;;;;;;;;;20.51;37.14;101594.75;10322668;28;20043;-78
2022/10/09 15:06:09;;;;;;;2.75;1.27;;;;;;;19.92;39.80;101588.31;10332295;28;19925;-77
2022/10/09 15:11:10;;;;;;;5.68;2.30;;;;;;;18.64;41.61;101581.81;10337049;28;20026;-77
2022/10/09 15:16:12;;;;;;;4.17;2.20;;;;;;;17.88;44.85;101584.13;10361984;28;20390;-77
2022/10/09 15:21:18;;;;;;;6.38;2.08;;;;;;;17.50;42.96;101578.59;10360272;28;20034;-76
2022/10/09 15:26:19;;;;;;;3.03;1.30;;;;;;;16.90;44.43;101567.84;10359984;28;20478;-77
2022/10/09 15:31:28;;;;;;;2.15;1.10;;;;;;;16.50;45.17;101570.06;10360655;28;20113;-77
2022/10/09 15:36:29;;;;;;;5.70;1.45;;;;;;;16.00;45.50;101563.06;10358668;28;20041;-77
2022/10/09 15:41:31;;;;;;;1.43;0.90;;;;;;;15.66;47.09;101553.84;10361021;28;20041;-77
2022/10/09 15:46:32;;;;;;;3.25;1.73;;;;;;;15.29;51.76;101551.53;10339457;28;20041;-77
2022/10/09 15:51:33;;;;;;;3.67;1.20;;;;;;;14.71;53.62;101541.34;10362100;28;20038;-77
2022/10/09 15:56:34;;;;;;;3.30;2.30;;;;;;;14.10;54.34;101522.94;10359699;28;20046;-77
2022/10/09 16:01:34;;;;;;;2.65;1.27;;;;;;;13.80;57.14;101523.38;10340777;28;20516;-76
2022/10/09 16:06:35;;;;;;;4.28;1.55;;;;;;;13.34;61.03;101516.00;10360152;28;20041;-76
2022/10/09 16:11:36;;;;;;;6.53;1.67;;;;;;;12.90;62.95;101503.44;10342810;28;20517;-76
2022/10/09 16:16:36;;;;;;;4.30;1.58;;;;;;;12.58;63.38;101509.75;10358356;28;20050;-76
2022/10/09 16:21:37;;;;;;;3.80;1.42;;;;;;;12.33;66.13;101508.53;10356809;28;20739;-76
2022/10/09 16:26:38;;;;;;;3.75;1.33;;;;;;;12.01;67.21;101500.78;10352329;28;20044;-76
2022/10/09 16:31:38;;;;;;;5.38;1.83;;;;;;;11.59;69.41;101497.66;10351881;28;20050;-75
2022/10/09 16:36:39;;;;;;;3.95;1.60;;;;;;;11.39;67.80;101489.63;10340994;28;22231;-78
2022/10/09 16:41:39;;;;;;;6.60;1.60;;;;;;;11.34;71.24;101485.84;10357941;28;20042;-80
2022/10/09 16:46:40;;;;;;;3.30;1.33;;;;;;;11.09;73.35;101491.50;10356685;28;20077;-78
2022/10/09 16:51:41;;;;;;;6.90;2.72;;;;;;;10.62;76.12;101483.66;10355554;28;20128;-82
2022/10/09 16:56:41;;;;;;;8.13;2.92;;;;;;;10.26;79.79;101493.75;10352435;28;20092;-79
2022/10/09 17:01:44;;;;;;;4.55;2.28;;;;;;;10.11;79.27;101491.13;10357171;28;20049;-81
2022/10/09 17:06:45;;;;;;;;;;;;;;;9.89;83.00;101496.78;10336800;28;20386;-77
2022/10/09 17:11:45;;;;;;;5.75;2.00;;;;;;;9.65;83.07;101492.75;10353206;28;19925;-79
2022/10/09 17:16:46;;;;;;;3.88;2.40;;;;;;;9.52;83.65;101484.97;10355993;28;20030;-78
2022/10/09 17:21:47;;;;;;;6.55;2.80;;;;;;;9.27;85.85;101485.16;10354881;28;20038;-78
2022/10/09 17:26:48;;;;;;;6.15;2.42;;;;;;;9.22;86.93;101488.38;10353883;28;20064;-81
2022/10/09 17:31:48;;;;;;;10.18;3.35;;;;;;;9.23;86.92;101491.88;10356671;28;20905;-81
2022/10/09 17:36:49;;;;;;;12.57;3.85;;;;;;;9.02;88.84;101488.84;10354324;28;20141;-82
2022/10/09 17:41:49;;;;;;;22.08;2.92;;;;;;;8.70;90.83;101498.97;10352995;28;20513;-81
2022/10/09 17:46:50;;;;;;;9.65;2.80;;;;;;;8.42;92.37;101498.84;10354723;28;20099;-78
2022/10/09 17:51:51;;;;;;;8.40;3.40;;;;;;;8.19;93.88;101501.72;10339979;28;20510;-77
2022/10/09 17:56:52;;;;;;;6.53;2.75;;;;;;;8.03;94.54;101496.25;10339269;28;20038;-77
2022/10/09 18:01:52;;;;;;;9.73;3.10;;;;;;;7.91;94.56;101496.34;10353894;28;20076;-78
2022/10/09 18:06:53;;;;;;;7.05;2.92;;;;;;;7.89;95.25;101497.94;10357349;28;20042;-77
2022/10/09 18:11:53;;;;;;;7.05;2.92;;;;;;;7.73;96.18;101494.28;10355045;28;20066;-77
2022/10/09 18:16:54;;;;;;;7.93;3.00;;;;;;;7.71;96.31;101481.91;10355954;28;20092;-77
2022/10/09 18:21:54;;;;;;;8.38;3.33;;;;;;;7.57;96.92;101483.59;10355309;28;20070;-77
2022/10/09 18:26:55;;;;;;;7.10;3.38;;;;;;;7.54;97.29;101479.03;10356544;28;20037;-78
2022/10/09 18:31:56;;;;;;;11.38;3.50;;;;;;;7.53;98.72;101479.84;10342679;28;20041;-78
2022/10/09 18:36:57;;;;;;;5.70;3.22;;;;;;;7.40;98.77;101469.38;10361523;28;20038;-80
2022/10/09 18:42:00;;;;;;;13.85;3.63;;;;;;;7.28;99.96;101466.81;10359409;28;20116;-79
2022/10/09 18:47:02;;;;;;;8.25;3.63;;;;;;;7.20;99.66;101461.06;10358138;28;20057;-80
2022/10/09 18:52:02;;;;;;;6.77;3.20;;;;;;;7.21;100.00;101462.84;10361889;28;20030;-79
2022/10/09 18:57:03;;;;;;;6.07;3.33;;;;;;;7.08;100.00;101461.09;10345892;28;20038;-78
2022/10/09 19:02:03;;;;;;;8.85;4.28;;;;;;;6.96;100.00;101455.03;10345026;28;20137;-78
2022/10/09 19:07:04;;;;;;;14.70;4.00;;;;;;;6.85;100.00;101447.34;10361940;28;20044;-78
2022/10/09 19:12:04;;;;;;;11.52;3.88;;;;;;;6.76;100.00;101444.97;10359706;28;20239;-79
2022/10/09 19:17:06;;;;;;;7.32;3.30;;;;;;;6.75;100.00;101448.38;10361801;28;20120;-78
2022/10/09 19:22:07;;;;;;;9.52;3.90;;;;;;;6.57;100.00;101437.53;10329748;28;20038;-78
2022/10/09 19:27:07;;;;;;;17.80;5.43;;;;;;;6.47;100.00;101437.66;10359576;28;20046;-79
2022/10/09 19:32:08;;;;;;;9.20;4.43;;;;;;;6.50;100.00;101437.88;10361551;28;20065;-78
2022/10/09 19:37:08;;;;;;;9.45;3.88;;;;;;;6.48;100.00;101439.47;10361983;28;20452;-78
2022/10/09 19:42:09;;;;;;;11.93;5.25;;;;;;;6.39;100.00;101437.06;10357288;28;20056;-80
2022/10/09 19:47:10;;;;;;;8.35;3.47;;;;;;;6.38;100.00;101426.59;10360289;28;20482;-80
2022/10/09 19:52:11;;;;;;;10.77;5.20;;;;;;;6.34;100.00;101433.25;10345236;28;20116;-80
2022/10/09 19:57:11;;;;;;;6.78;3.83;;;;;;;6.32;100.00;101422.75;10362922;28;20068;-80
2022/10/09 20:02:12;;;;;;;11.07;4.43;;;;;;;6.41;100.00;101424.22;10360814;28;20054;-80
2022/10/09 20:07:13;;;;;;;12.10;4.05;;;;;;;6.34;100.00;101416.75;10360628;28;20045;-79
2022/10/09 20:12:13;;;;;;;9.73;5.28;;;;;;;6.13;100.00;101430.84;10361414;28;20041;-79
2022/10/09 20:17:14;;;;;;;9.00;3.72;;;;;;;5.98;100.00;101429.66;10359956;28;20470;-79
2022/10/09 20:22:14;;;;;;;10.82;5.38;;;;;;;5.94;100.00;101412.97;10358739;28;20088;-79
2022/10/09 20:27:15;;;;;;;6.45;3.58;;;;;;;5.87;100.00;101408.97;10360343;28;20153;-78
2022/10/09 20:32:16;;;;;;;7.80;4.20;;;;;;;5.85;100.00;101415.75;10359921;28;20048;-79
2022/10/09 20:37:17;;;;;;;12.47;4.50;;;;;;;5.78;100.00;101421.28;10357607;28;20121;-79
2022/10/09 20:42:17;;;;;;;7.95;4.38;;;;;;;5.66;100.00;101412.56;10358505;28;20375;-79
2022/10/09 20:47:18;;;;;;;13.05;4.22;;;;;;;5.55;100.00;101412.63;10361546;28;20113;-79
2022/10/09 20:52:18;;;;;;;12.45;5.68;;;;;;;5.46;100.00;101404.13;10359659;28;20056;-78
2022/10/09 20:57:19;;;;;;;12.43;5.78;;;;;;;5.41;100.00;101397.69;10359222;28;20048;-79
2022/10/09 21:02:19;;;;;;;13.52;5.93;;;;;;;5.44;100.00;101397.91;10358700;28;20045;-77
2022/10/09 21:07:20;;;;;;;15.15;5.00;;;;;;;5.48;100.00;101394.78;10342471;28;20076;-78
2022/10/09 21:12:20;;;;;;;13.82;5.57;;;;;;;5.40;100.00;101396.81;10357659;28;20042;-77
2022/10/09 21:17:21;;;;;;;11.32;6.40;;;;;;;5.40;100.00;101393.28;10355752;28;20793;-78
2022/10/09 21:22:21;;;;;;;12.95;6.07;;;;;;;5.42;100.00;101387.44;10355344;28;20049;-78
2022/10/09 21:27:22;;;;;;;9.68;6.20;;;;;;;5.48;100.00;101386.09;10355298;28;20596;-77
2022/10/09 21:32:22;;;;;;;12.15;5.47;;;;;;;5.43;100.00;101375.34;10358808;28;20124;-77
2022/10/09 21:37:23;;;;;;;11.40;7.85;;;;;;;5.38;100.00;101384.47;10356153;28;20068;-77
2022/10/09 21:42:23;;;;;;;7.32;5.10;;;;;;;5.47;100.00;101373.91;10356556;28;20145;-77
2022/10/09 21:47:24;;;;;;;9.55;4.63;;;;;;;5.65;100.00;101367.50;10357327;28;20466;-79
2022/10/09 21:52:24;;;;;;;9.48;4.88;;;;;;;5.58;100.00;101366.13;10357128;28;20065;-77
2022/10/09 21:57:25;;;;;;;12.50;7.38;;;;;;;5.57;100.00;101360.84;10358329;28;20054;-76
2022/10/09 22:02:25;;;;;;;10.07;6.55;;;;;;;5.52;100.00;101360.47;10358085;28;20091;-77
2022/10/09 22:07:29;;;;;;;14.60;8.95;;;;;;;5.52;100.00;101362.19;10362508;28;20096;-77
2022/10/09 22:12:29;;;;;;;15.23;6.47;;;;;;;5.44;100.00;101352.13;10362197;28;20033;-77
2022/10/09 22:17:30;;;;;;;11.65;6.47;;;;;;;5.46;100.00;101351.31;10362776;28;20133;-77
2022/10/09 22:22:30;;;;;;;13.88;7.00;;;;;;;5.49;100.00;101343.78;10364176;28;20079;-78
2022/10/09 22:27:31;;;;;;;13.48;7.45;;;;;;;5.45;100.00;101337.44;10363205;28;20470;-77
2022/10/09 22:32:31;;;;;;;13.07;7.20;;;;;;;5.53;100.00;101323.31;10365170;28;20069;-77
2022/10/09 22:37:32;;;;;;;10.80;7.50;;;;;;;5.57;100.00;101330.56;10344818;28;20040;-77
2022/10/09 22:42:32;;;;;;;13.52;8.60;;;;;;;5.54;100.00;101319.94;10364418;28;20046;-77
2022/10/09 22:47:33;;;;;;;14.07;8.05;;;;;;;5.58;100.00;101324.56;10365928;28;20048;-77
2022/10/09 22:52:33;;;;;;;12.05;6.57;;;;;;;5.57;100.00;101311.50;10361504;28;20053;-77
2022/10/09 22:57:34;;;;;;;15.25;6.93;;;;;;;5.54;100.00;101301.78;10361616;28;20107;-77